Dawson City Airport
CYDA : rendu visible

Aérodrome :











RETROUVEZ-NOUS SUR...

 
LOGIN :

S'inscrire | Disclaimer

   EN    FR    IT 

 









Légende :    VFR   VFR Marginal   IFR   IFR Intensif   IFR Très Intensif
Visi : 
Plafond : 
>= 8 km
>= 3000ft
5 à 8 km
1000 à 3000 ft
1500m à 5 km
500 à 1000 ft
800 à 1500m
200 à 500 ft
< 800m
< 200 ft
Symboles :   Orages  Brouillard  Fortes neiges  Fortes précipitations  Vent > 20 kt






- Altitude de l'aérodrome : 1215 ft
- Code IATA : YDA


CYDA - Dawson City

DERNIER METAR :
  • 030100Z 00000KT 20SM SCT080TCU BKN100 OVC210 18/M04 A2956 RMK TCU3CU4CI1 SLP024 DENSITY ALT 2400FT

METARs EXPIRÉS :
  • 030000Z 09007KT 050V120 20SM FEW080TCU BKN100 OVC210 19/M04 A2957 RMK TCU2CU3CI3 SLP024 DENSITY ALT 2400FT
  • 022300Z VRB06KT 20SM FEW080TCU BKN090 OVC210 19/M03 A2956 RMK TCU2CU3CI3 SLP023 DENSITY ALT 2400FT

TAF TAF CYDA
Valide du 02 à 21h jusqu'au 03 à 03h UTC


022038Z 0221/0303 09008KT P6SM SCT060 BKN220
TEMPO 0221/0301 P6SM VCSH BKN060 BKN220
FM030100 18008KT P6SM BKN060 BKN220
TEMPO 0301/0303 VRB15G25KT P6SM -SHRA VCTS BKN060CB OVC080 RMK NXT FCST WILL BE ISSUED AT 031445Z
FIR CZEG / Amérique du Nord



MET'MAP, la Météo Aéronautique d'un coup d'oeil ! - Copyright ORBIFLY Décembre 2007 - Disclaimer

ORBIFLY MET'MAP TEAM :

Programmation & Développement : Alexandra Zaïnal
Sur une idée originale de : Baudouin d'Aumeries
Assistance à la programmation : Marc-Olivier Méhu
Soutien technique & logistique : Manuel Goepfert

Contact : metmap@orbifly.com




SOURCES & CREDITS :

   NOAA       Earth
Advisory